Time;durP1;ratioP1;P1;durP2;ratioP2;P2;SDS_P1;SDS_P2;PMS_P1;PMS_P2;Temp;Humidity;BMP_temperature;BMP_pressure;BME280_temperature;BME280_humidity;BME280_pressure;Samples;Min_cycle;Max_cycle;Signal;HPM_P1;HPM_P2
2023/05/25 00:02:49;;;;;;;6.88;3.53;;;;;;;;;;6255760;28;20041;-77
2023/05/25 00:05:52;;;;;;;7.28;3.42;;;;;;;;;;6254043;28;20072;-80
2023/05/25 00:08:56;;;;;;;5.85;3.40;;;;;;;;;;6252524;28;20098;-80
2023/05/25 00:11:58;;;;;;;7.00;3.25;;;;;;;;;;6247818;28;20033;-79
2023/05/25 00:15:00;;;;;;;7.27;3.40;;;;;;;;;;6270061;28;20148;-79
2023/05/25 00:18:02;;;;;;;11.52;3.95;;;;;;;;;;6251394;28;20051;-81
2023/05/25 00:21:05;;;;;;;7.28;3.95;;;;;;;;;;6253805;28;20055;-79
2023/05/25 00:24:07;;;;;;;6.45;3.72;;;;;;;;;;6249773;28;20454;-81
2023/05/25 00:27:09;;;;;;;5.57;3.35;;;;;;;;;;6248875;28;20733;-80
2023/05/25 00:30:11;;;;;;;8.10;3.40;;;;;;;;;;6247182;28;20117;-79
2023/05/25 00:33:13;;;;;;;5.57;3.50;;;;;;;;;;6247804;28;20471;-80
2023/05/25 00:36:15;;;;;;;8.75;3.67;;;;;;;;;;6258430;28;20053;-80
2023/05/25 00:39:18;;;;;;;7.13;3.83;;;;;;;;;;6241043;28;20503;-80
2023/05/25 00:42:20;;;;;;;7.40;3.40;;;;;;;;;;6257821;28;20092;-80
2023/05/25 00:45:21;;;;;;;6.53;3.60;;;;;;;;;;6238229;28;20447;-81
2023/05/25 00:48:26;;;;;;;8.98;3.80;;;;;;;;;;6238439;28;20049;-79
2023/05/25 00:51:31;;;;;;;5.45;3.15;;;;;;;;;;6251610;28;20415;-81
2023/05/25 00:54:34;;;;;;;7.03;3.40;;;;;;;;;;6258158;28;20043;-79
2023/05/25 00:57:40;;;;;;;7.65;3.78;;;;;;;;;;6266330;28;20044;-79
2023/05/25 01:00:44;;;;;;;7.50;3.45;;;;;;;;;;6256486;28;20045;-80
2023/05/25 01:03:52;;;;;;;7.65;3.72;;;;;;;;;;6244610;28;20052;-79
2023/05/25 01:06:56;;;;;;;8.40;3.72;;;;;;;;;;6257137;28;20059;-79
2023/05/25 01:10:01;;;;;;;7.25;3.83;;;;;;;;;;6253531;28;20079;-79
2023/05/25 01:13:03;;;;;;;6.32;3.47;;;;;;;;;;6275938;28;20041;-78
2023/05/25 01:16:07;;;;;;;5.15;3.22;;;;;;;;;;6255166;28;20045;-80
2023/05/25 01:19:09;;;;;;;6.68;3.67;;;;;;;;;;6256594;28;20465;-80
2023/05/25 01:22:26;;;;;;;6.25;3.40;;;;;;;;;;6258464;28;20457;-80
2023/05/25 01:25:42;;;;;;;7.35;3.38;;;;;;;;;;6254277;28;20101;-80
2023/05/25 01:28:51;;;;;;;6.65;3.78;;;;;;;;;;6254160;28;20048;-80
2023/05/25 01:31:55;;;;;;;8.30;3.33;;;;;;;;;;6278383;28;20055;-78
2023/05/25 01:34:58;;;;;;;6.15;3.45;;;;;;;;;;6259849;28;20124;-79
2023/05/25 01:38:00;;;;;;;6.45;3.38;;;;;;;;;;6252576;28;20076;-79
2023/05/25 01:41:02;;;;;;;7.65;4.30;;;;;;;;;;6256777;28;20410;-81
2023/05/25 01:44:06;;;;;;;7.32;3.95;;;;;;;;;;6251829;28;20049;-79
2023/05/25 01:47:56;;;;;;;8.40;4.47;;;;;;;;;;6254834;28;20044;-80
2023/05/25 01:51:09;;;;;;;6.63;3.65;;;;;;;;;;6253092;28;20569;-81
2023/05/25 01:54:15;;;;;;;;;;;;;;;;;;6257709;28;20041;-78
2023/05/25 01:57:19;;;;;;;5.60;3.40;;;;;;;;;;6243256;28;20007;-79
2023/05/25 02:00:24;;;;;;;6.53;3.53;;;;;;;;;;6253595;28;20080;-79
2023/05/25 02:03:26;;;;;;;6.90;3.08;;;;;;;;;;6260756;28;20092;-79
2023/05/25 02:06:28;;;;;;;7.40;3.67;;;;;;;;;;6252362;28;20222;-80
2023/05/25 02:09:32;;;;;;;7.80;3.70;;;;;;;;;;6256633;28;20400;-78
2023/05/25 02:12:34;;;;;;;10.05;3.75;;;;;;;;;;6235928;28;20400;-78
2023/05/25 02:15:37;;;;;;;8.60;3.80;;;;;;;;;;6237097;28;20503;-79
2023/05/25 02:18:38;;;;;;;8.07;4.55;;;;;;;;;;6256346;28;20075;-81
2023/05/25 02:21:41;;;;;;;11.82;4.68;;;;;;;;;;6251438;28;20053;-80
2023/05/25 02:24:42;;;;;;;8.88;4.80;;;;;;;;;;6257304;28;20079;-77
2023/05/25 02:27:44;;;;;;;11.63;4.32;;;;;;;;;;6253355;28;20089;-80
2023/05/25 02:30:46;;;;;;;9.85;4.07;;;;;;;;;;6250924;28;20514;-80
2023/05/25 02:33:47;;;;;;;7.93;3.75;;;;;;;;;;6258550;28;20045;-80
2023/05/25 02:36:50;;;;;;;8.57;4.47;;;;;;;;;;6251157;28;20071;-78
2023/05/25 02:39:51;;;;;;;9.85;4.50;;;;;;;;;;6250363;28;20056;-80
2023/05/25 02:42:54;;;;;;;12.87;4.80;;;;;;;;;;6256091;28;20042;-81
2023/05/25 02:45:56;;;;;;;9.23;4.85;;;;;;;;;;6271280;28;20040;-79
2023/05/25 02:48:58;;;;;;;11.35;5.25;;;;;;;;;;6256922;28;20522;-80
2023/05/25 02:52:00;;;;;;;7.93;4.50;;;;;;;;;;6260415;28;20067;-80
2023/05/25 02:55:02;;;;;;;12.75;4.68;;;;;;;;;;6245620;28;20132;-78
2023/05/25 02:58:09;;;;;;;9.07;4.47;;;;;;;;;;6264035;28;20045;-78
2023/05/25 03:01:39;;;;;;;6.90;4.20;;;;;;;;;;6276508;28;20469;-77
2023/05/25 03:04:42;;;;;;;9.10;4.75;;;;;;;;;;6272871;28;20053;-79
2023/05/25 03:07:43;;;;;;;8.00;4.13;;;;;;;;;;6268793;28;20030;-80
2023/05/25 03:10:45;;;;;;;8.30;4.30;;;;;;;;;;6276839;28;20353;-78
2023/05/25 03:13:46;;;;;;;9.00;4.32;;;;;;;;;;6271705;28;20428;-79
2023/05/25 03:16:50;;;;;;;;;;;;;;;;;;6282857;28;20079;-78
2023/05/25 03:19:55;;;;;;;9.43;4.82;;;;;;;;;;6283994;28;19909;-78
2023/05/25 03:22:57;;;;;;;6.72;3.95;;;;;;;;;;6287817;28;20032;-79
2023/05/25 03:25:59;;;;;;;7.80;4.20;;;;;;;;;;6262500;28;20105;-80
2023/05/25 03:29:01;;;;;;;7.45;4.32;;;;;;;;;;6253284;28;20091;-79
2023/05/25 03:32:03;;;;;;;7.93;3.90;;;;;;;;;;6254693;28;20537;-79
2023/05/25 03:35:07;;;;;;;9.48;4.18;;;;;;;;;;6239035;28;20045;-81
2023/05/25 03:38:11;;;;;;;7.25;4.03;;;;;;;;;;6275636;28;20052;-80
2023/05/25 03:41:13;;;;;;;7.32;4.43;;;;;;;;;;6249575;28;20055;-80
2023/05/25 03:44:16;;;;;;;10.25;4.55;;;;;;;;;;6251751;28;20128;-81
2023/05/25 03:47:20;;;;;;;9.75;4.53;;;;;;;;;;6241325;28;20065;-80
2023/05/25 03:50:22;;;;;;;9.27;4.65;;;;;;;;;;6255989;28;20110;-80
2023/05/25 03:53:24;;;;;;;10.80;5.00;;;;;;;;;;6258596;28;20056;-81
2023/05/25 03:56:26;;;;;;;10.95;4.60;;;;;;;;;;6253540;28;20130;-81
2023/05/25 03:59:27;;;;;;;9.23;4.72;;;;;;;;;;6257473;28;20053;-82
2023/05/25 04:02:29;;;;;;;7.97;4.07;;;;;;;;;;6273749;28;20040;-82
2023/05/25 04:05:31;;;;;;;9.32;4.55;;;;;;;;;;6269817;28;20106;-81
2023/05/25 04:08:33;;;;;;;11.25;5.35;;;;;;;;;;6253435;28;20052;-81
2023/05/25 04:11:35;;;;;;;10.57;5.13;;;;;;;;;;6250117;28;20096;-81
2023/05/25 04:14:36;;;;;;;9.32;4.32;;;;;;;;;;6243098;28;20041;-80
2023/05/25 04:17:41;;;;;;;8.73;4.97;;;;;;;;;;6256472;28;20314;-82
2023/05/25 04:20:45;;;;;;;10.15;4.75;;;;;;;;;;6245362;28;20044;-81
2023/05/25 04:23:48;;;;;;;8.25;4.60;;;;;;;;;;6259012;28;20506;-80
2023/05/25 04:26:51;;;;;;;9.00;4.68;;;;;;;;;;6241527;28;20041;-81
2023/05/25 04:29:53;;;;;;;8.10;4.78;;;;;;;;;;6237393;28;20056;-80
2023/05/25 04:33:18;;;;;;;10.43;4.70;;;;;;;;;;6229733;28;20190;-81
2023/05/25 04:36:32;;;;;;;10.52;5.20;;;;;;;;;;6255624;28;20132;-82
2023/05/25 04:39:37;;;;;;;9.10;5.10;;;;;;;;;;6260637;28;20524;-80
2023/05/25 04:42:40;;;;;;;9.15;4.68;;;;;;;;;;6263750;28;20047;-81
2023/05/25 04:45:44;;;;;;;;;;;;;;;;;;6259884;28;20041;-80
2023/05/25 04:48:47;;;;;;;8.90;4.07;;;;;;;;;;6256981;28;19925;-81
2023/05/25 04:51:48;;;;;;;11.90;4.85;;;;;;;;;;6242232;28;20045;-81
2023/05/25 04:54:52;;;;;;;8.70;5.03;;;;;;;;;;6262660;28;20049;-80
2023/05/25 04:57:54;;;;;;;11.55;4.90;;;;;;;;;;6253870;28;20048;-81
2023/05/25 05:00:57;;;;;;;9.02;5.03;;;;;;;;;;6242187;28;20500;-81
2023/05/25 05:03:59;;;;;;;10.38;5.07;;;;;;;;;;6248348;28;20356;-80
2023/05/25 05:07:02;;;;;;;13.70;6.07;;;;;;;;;;6257789;28;20041;-81
2023/05/25 05:10:05;;;;;;;10.85;5.72;;;;;;;;;;6246064;28;20060;-81
2023/05/25 05:13:10;;;;;;;13.40;5.63;;;;;;;;;;6260871;28;20132;-80
2023/05/25 05:16:12;;;;;;;8.07;4.47;;;;;;;;;;6243255;28;20128;-80
2023/05/25 05:19:14;;;;;;;9.13;4.88;;;;;;;;;;6252839;28;20045;-80
2023/05/25 05:22:16;;;;;;;13.82;6.53;;;;;;;;;;6256253;28;20049;-82
2023/05/25 05:25:19;;;;;;;9.40;5.72;;;;;;;;;;6256285;28;20499;-81
2023/05/25 05:28:26;;;;;;;11.80;5.53;;;;;;;;;;6252952;28;20057;-81
2023/05/25 05:31:28;;;;;;;14.32;6.90;;;;;;;;;;6248862;28;20049;-80
2023/05/25 05:34:30;;;;;;;11.32;6.00;;;;;;;;;;6275811;28;20132;-80
2023/05/25 05:37:36;;;;;;;14.43;6.05;;;;;;;;;;6244011;28;20045;-78
2023/05/25 05:40:38;;;;;;;11.43;5.80;;;;;;;;;;6254582;28;20048;-80
2023/05/25 05:43:42;;;;;;;17.88;7.20;;;;;;;;;;6244697;28;20049;-80
2023/05/25 05:46:44;;;;;;;12.80;6.03;;;;;;;;;;6276216;28;20049;-78
2023/05/25 05:49:46;;;;;;;13.65;5.90;;;;;;;;;;6257168;28;20057;-82
2023/05/25 05:52:48;;;;;;;18.85;6.43;;;;;;;;;;6253279;28;20044;-79
2023/05/25 05:55:53;;;;;;;13.35;6.32;;;;;;;;;;6238256;28;20048;-81
2023/05/25 05:58:57;;;;;;;11.85;6.35;;;;;;;;;;6233574;28;20049;-80
2023/05/25 06:01:59;;;;;;;16.98;6.72;;;;;;;;;;6261180;28;20051;-80
2023/05/25 06:05:01;;;;;;;16.58;6.82;;;;;;;;;;6253620;28;20446;-82
2023/05/25 06:08:02;;;;;;;14.32;6.88;;;;;;;;;;6272799;28;20040;-79
2023/05/25 06:11:10;;;;;;;16.33;6.40;;;;;;;;;;6259463;28;20493;-81
2023/05/25 06:14:13;;;;;;;11.30;6.25;;;;;;;;;;6256659;28;20041;-79
2023/05/25 06:17:15;;;;;;;15.98;7.10;;;;;;;;;;6254306;28;20048;-80
2023/05/25 06:20:18;;;;;;;15.70;7.30;;;;;;;;;;6251557;28;20037;-81
2023/05/25 06:23:20;;;;;;;16.67;7.33;;;;;;;;;;6249824;28;20396;-80
2023/05/25 06:26:23;;;;;;;16.65;6.90;;;;;;;;;;6252437;28;20439;-81
2023/05/25 06:29:25;;;;;;;17.38;7.63;;;;;;;;;;6259032;28;20529;-80
2023/05/25 06:32:28;;;;;;;15.73;7.15;;;;;;;;;;6268059;28;20103;-78
2023/05/25 06:35:30;;;;;;;14.77;6.85;;;;;;;;;;6249532;28;20044;-78
2023/05/25 06:38:32;;;;;;;15.38;7.38;;;;;;;;;;6247013;28;20045;-81
2023/05/25 06:41:33;;;;;;;13.45;7.10;;;;;;;;;;6265687;28;20102;-79
2023/05/25 06:44:36;;;;;;;13.03;7.50;;;;;;;;;;6231284;28;20110;-80
2023/05/25 06:47:42;;;;;;;13.77;6.78;;;;;;;;;;6245841;28;20056;-79
2023/05/25 06:50:45;;;;;;;15.57;6.60;;;;;;;;;;6253394;28;20033;-80
2023/05/25 06:53:46;;;;;;;16.50;6.80;;;;;;;;;;6255521;28;20047;-78
2023/05/25 06:56:48;;;;;;;14.95;6.35;;;;;;;;;;6257699;28;20041;-80
2023/05/25 06:59:50;;;;;;;11.98;6.80;;;;;;;;;;6252381;28;20056;-80
2023/05/25 07:02:52;;;;;;;12.82;6.53;;;;;;;;;;6252726;28;20045;-78
2023/05/25 07:05:54;;;;;;;15.10;7.00;;;;;;;;;;6252117;28;20048;-83
2023/05/25 07:08:55;;;;;;;13.70;6.35;;;;;;;;;;6246791;28;20410;-79
2023/05/25 07:11:57;;;;;;;17.17;6.75;;;;;;;;;;6244102;28;20076;-80
2023/05/25 07:14:59;;;;;;;12.85;6.47;;;;;;;;;;6257629;28;20149;-80
2023/05/25 07:18:01;;;;;;;15.27;6.38;;;;;;;;;;6266678;28;20525;-80
2023/05/25 07:21:03;;;;;;;15.00;6.90;;;;;;;;;;6274774;28;20052;-82
2023/05/25 07:24:05;;;;;;;13.90;6.88;;;;;;;;;;6252907;28;20037;-81
2023/05/25 07:27:07;;;;;;;14.80;6.75;;;;;;;;;;6257080;28;20451;-79
2023/05/25 07:30:09;;;;;;;13.13;6.93;;;;;;;;;;6256083;28;20147;-79
2023/05/25 07:33:11;;;;;;;19.13;7.40;;;;;;;;;;6254986;28;20120;-79
2023/05/25 07:36:12;;;;;;;12.80;6.30;;;;;;;;;;6253977;28;20097;-80
2023/05/25 07:39:14;;;;;;;13.95;6.47;;;;;;;;;;6248895;28;20057;-79
2023/05/25 07:42:19;;;;;;;14.77;6.75;;;;;;;;;;6242676;28;20042;-81
2023/05/25 07:45:21;;;;;;;15.93;7.55;;;;;;;;;;6254030;28;20049;-80
2023/05/25 07:48:24;;;;;;;13.82;6.32;;;;;;;;;;6244696;28;20034;-80
2023/05/25 07:51:28;;;;;;;17.02;6.95;;;;;;;;;;6264837;28;20083;-80
2023/05/25 07:54:29;;;;;;;13.02;6.20;;;;;;;;;;6270964;28;20053;-79
2023/05/25 07:57:31;;;;;;;11.82;6.50;;;;;;;;;;6264363;28;20118;-80
2023/05/25 08:00:36;;;;;;;11.52;6.22;;;;;;;;;;6260159;28;20053;-80
2023/05/25 08:03:38;;;;;;;13.00;5.70;;;;;;;;;;6252463;28;20048;-81
2023/05/25 08:06:50;;;;;;;10.18;6.05;;;;;;;;;;6242731;28;20174;-80
2023/05/25 08:09:52;;;;;;;14.73;6.88;;;;;;;;;;6256078;28;20065;-81
2023/05/25 08:12:54;;;;;;;16.10;6.57;;;;;;;;;;6252480;28;20068;-81
2023/05/25 08:15:58;;;;;;;12.40;6.20;;;;;;;;;;6253255;28;20163;-79
2023/05/25 08:19:00;;;;;;;12.05;5.80;;;;;;;;;;6241302;28;20714;-79
2023/05/25 08:22:02;;;;;;;12.38;5.80;;;;;;;;;;6252904;28;20076;-78
2023/05/25 08:25:05;;;;;;;11.57;5.25;;;;;;;;;;6250192;28;20506;-79
2023/05/25 08:28:07;;;;;;;8.90;4.97;;;;;;;;;;6254764;28;20047;-78
2023/05/25 08:31:08;;;;;;;11.95;5.50;;;;;;;;;;6251344;28;20462;-82
2023/05/25 08:34:11;;;;;;;11.25;5.63;;;;;;;;;;6249875;28;20080;-81
2023/05/25 08:37:12;;;;;;;10.77;5.30;;;;;;;;;;6254043;28;20072;-82
2023/05/25 08:40:15;;;;;;;10.38;4.55;;;;;;;;;;6269349;28;20036;-80
2023/05/25 08:43:17;;;;;;;9.43;4.47;;;;;;;;;;6250253;28;20446;-78
2023/05/25 08:46:29;;;;;;;8.38;4.45;;;;;;;;;;6253371;28;20475;-79
2023/05/25 08:49:35;;;;;;;9.37;4.70;;;;;;;;;;6235944;28;20066;-79
2023/05/25 08:52:38;;;;;;;7.65;4.28;;;;;;;;;;6250022;28;20046;-79
2023/05/25 08:55:41;;;;;;;;;;;;;;;;;;6251287;28;20752;-78
2023/05/25 08:58:55;;;;;;;6.88;4.50;;;;;;;;;;6251287;28;20306;-79
2023/05/25 09:02:32;;;;;;;8.88;4.70;;;;;;;;;;6238513;28;20052;-79
2023/05/25 09:05:35;;;;;;;8.23;4.10;;;;;;;;;;6261001;28;20060;-80
2023/05/25 09:08:43;;;;;;;9.15;3.78;;;;;;;;;;6270104;28;20506;-79
2023/05/25 09:11:46;;;;;;;8.43;4.20;;;;;;;;;;6255421;28;20127;-79
2023/05/25 09:14:49;;;;;;;7.55;4.43;;;;;;;;;;6256667;28;20038;-79
2023/05/25 09:17:50;;;;;;;7.30;4.18;;;;;;;;;;6254061;28;20558;-78
2023/05/25 09:20:53;;;;;;;7.75;4.20;;;;;;;;;;6259281;28;20044;-78
2023/05/25 09:23:58;;;;;;;9.07;4.25;;;;;;;;;;6243869;28;20538;-80
2023/05/25 09:27:02;;;;;;;9.40;4.10;;;;;;;;;;6242133;28;20040;-79
2023/05/25 09:30:05;;;;;;;7.18;3.72;;;;;;;;;;6249947;28;20037;-79
2023/05/25 09:33:11;;;;;;;7.63;4.22;;;;;;;;;;6257642;28;20583;-79
2023/05/25 09:36:15;;;;;;;7.22;3.90;;;;;;;;;;6258268;28;20518;-79
2023/05/25 09:39:17;;;;;;;6.68;4.18;;;;;;;;;;6248877;28;20771;-79
2023/05/25 09:42:19;;;;;;;8.32;4.00;;;;;;;;;;6255438;28;20037;-79
2023/05/25 09:45:22;;;;;;;9.98;4.20;;;;;;;;;;6255767;28;20049;-78
2023/05/25 09:48:24;;;;;;;7.70;3.70;;;;;;;;;;6254826;28;20041;-79
2023/05/25 09:51:29;;;;;;;6.40;3.40;;;;;;;;;;6241695;28;20041;-80
2023/05/25 09:54:31;;;;;;;6.82;3.67;;;;;;;;;;6250521;28;20048;-79
2023/05/25 09:57:34;;;;;;;6.30;3.60;;;;;;;;;;6257224;28;20045;-79
2023/05/25 10:00:36;;;;;;;8.73;3.63;;;;;;;;;;6254297;28;20545;-79
2023/05/25 10:03:47;;;;;;;10.50;4.18;;;;;;;;;;6263952;28;20415;-78
2023/05/25 10:07:04;;;;;;;6.95;3.50;;;;;;;;;;6257838;28;20546;-79
2023/05/25 10:10:09;;;;;;;7.63;3.53;;;;;;;;;;6250403;28;20415;-79
2023/05/25 10:13:13;;;;;;;6.68;3.72;;;;;;;;;;6236738;28;20087;-80
2023/05/25 10:16:16;;;;;;;;;;;;;;;;;;6257410;28;20037;-79
2023/05/25 10:19:23;;;;;;;6.05;3.40;;;;;;;;;;6254043;28;19931;-79
2023/05/25 10:22:31;;;;;;;6.38;3.60;;;;;;;;;;6265202;28;20041;-78
2023/05/25 10:25:45;;;;;;;7.82;3.45;;;;;;;;;;6235054;28;20396;-78
2023/05/25 10:28:54;;;;;;;6.55;3.80;;;;;;;;;;6266651;28;20045;-79
2023/05/25 10:31:57;;;;;;;4.88;3.28;;;;;;;;;;6248993;28;20041;-78
2023/05/25 10:35:02;;;;;;;7.07;3.20;;;;;;;;;;6235723;28;20048;-77
2023/05/25 10:38:04;;;;;;;5.35;3.10;;;;;;;;;;6257506;28;20048;-77
2023/05/25 10:41:08;;;;;;;5.78;3.00;;;;;;;;;;6251967;28;20053;-77
2023/05/25 10:44:10;;;;;;;7.00;3.50;;;;;;;;;;6253619;28;20395;-78
2023/05/25 10:47:13;;;;;;;5.47;3.10;;;;;;;;;;6248469;28;20063;-76
2023/05/25 10:50:20;;;;;;;5.35;3.05;;;;;;;;;;6235649;28;20474;-76
2023/05/25 10:53:22;;;;;;;4.80;3.05;;;;;;;;;;6253946;28;20510;-78
2023/05/25 10:56:24;;;;;;;6.33;3.03;;;;;;;;;;6249488;28;20073;-77
2023/05/25 10:59:28;;;;;;;5.53;3.17;;;;;;;;;;6251085;28;20219;-75
2023/05/25 11:02:47;;;;;;;8.98;3.58;;;;;;;;;;6249145;28;20189;-75
2023/05/25 11:05:51;;;;;;;6.35;3.65;;;;;;;;;;6252897;28;20090;-75
2023/05/25 11:09:02;;;;;;;5.18;3.33;;;;;;;;;;6262934;28;20048;-74
2023/05/25 11:12:05;;;;;;;5.90;3.20;;;;;;;;;;6246641;28;20052;-73
2023/05/25 11:15:14;;;;;;;8.25;3.50;;;;;;;;;;6251133;28;20040;-75
2023/05/25 11:18:16;;;;;;;6.53;3.30;;;;;;;;;;6254993;28;20119;-73
2023/05/25 11:21:25;;;;;;;7.63;3.93;;;;;;;;;;6245335;28;20060;-73
2023/05/25 11:24:29;;;;;;;6.30;3.92;;;;;;;;;;6266306;28;20041;-75
2023/05/25 11:27:31;;;;;;;4.95;3.40;;;;;;;;;;6247621;28;20041;-75
2023/05/25 11:30:33;;;;;;;6.13;3.53;;;;;;;;;;6251008;28;20426;-76
2023/05/25 11:33:36;;;;;;;5.53;3.63;;;;;;;;;;6254261;28;20263;-75
2023/05/25 11:36:38;;;;;;;6.85;4.03;;;;;;;;;;6249527;28;20053;-75
2023/05/25 11:39:40;;;;;;;7.32;3.83;;;;;;;;;;6253986;28;20049;-75
2023/05/25 11:42:47;;;;;;;7.60;4.00;;;;;;;;;;6252320;28;20388;-75
2023/05/25 11:45:55;;;;;;;5.90;3.70;;;;;;;;;;6246650;28;20510;-74
2023/05/25 11:48:58;;;;;;;6.40;3.60;;;;;;;;;;6252694;28;20056;-73
2023/05/25 11:52:05;;;;;;;5.97;3.30;;;;;;;;;;6266686;28;20052;-75
2023/05/25 11:55:13;;;;;;;5.93;3.67;;;;;;;;;;6264009;28;20063;-74
2023/05/25 11:58:15;;;;;;;5.32;3.53;;;;;;;;;;6249506;28;20067;-71
2023/05/25 12:01:19;;;;;;;4.47;3.43;;;;;;;;;;6256592;28;20041;-73
2023/05/25 12:04:21;;;;;;;7.05;3.60;;;;;;;;;;6252157;28;20565;-71
2023/05/25 12:07:25;;;;;;;5.00;3.70;;;;;;;;;;6249908;28;20083;-73
2023/05/25 12:10:27;;;;;;;4.95;3.67;;;;;;;;;;6250501;28;20045;-76
2023/05/25 12:13:30;;;;;;;6.07;3.50;;;;;;;;;;6251279;28;20514;-73
2023/05/25 12:16:33;;;;;;;;;;;;;;;;;;6231929;28;20060;-73
2023/05/25 12:19:35;;;;;;;;;;;;;;;;;;6251229;28;20070;-72
2023/05/25 12:22:38;;;;;;;4.97;3.40;;;;;;;;;;6245705;28;19928;-72
2023/05/25 12:25:40;;;;;;;8.77;3.60;;;;;;;;;;6248407;28;20395;-72
2023/05/25 12:28:59;;;;;;;5.70;3.53;;;;;;;;;;6247548;28;20065;-74
2023/05/25 12:32:05;;;;;;;6.10;3.42;;;;;;;;;;6250132;28;20055;-75
2023/05/25 12:35:08;;;;;;;5.28;3.55;;;;;;;;;;6254348;28;20063;-74
2023/05/25 12:38:10;;;;;;;5.45;3.63;;;;;;;;;;6251901;28;20075;-73
2023/05/25 12:41:12;;;;;;;4.95;3.28;;;;;;;;;;6253202;28;20506;-72
2023/05/25 12:44:34;;;;;;;5.80;3.58;;;;;;;;;;6254623;28;20045;-72
2023/05/25 12:47:36;;;;;;;18.85;10.07;;;;;;;;;;6255536;28;20049;-73
2023/05/25 12:50:38;;;;;;;5.87;3.53;;;;;;;;;;6254429;28;20049;-75
2023/05/25 12:53:49;;;;;;;6.23;3.50;;;;;;;;;;6248445;28;20045;-74
2023/05/25 12:56:55;;;;;;;5.23;3.73;;;;;;;;;;6251823;28;20099;-74
2023/05/25 12:59:57;;;;;;;5.65;3.67;;;;;;;;;;6255234;28;20132;-74
2023/05/25 13:02:59;;;;;;;6.00;4.30;;;;;;;;;;6253149;28;20495;-75
2023/05/25 13:06:02;;;;;;;16.77;7.18;;;;;;;;;;6256434;28;20083;-72
2023/05/25 13:09:04;;;;;;;5.93;3.63;;;;;;;;;;6253224;28;20052;-75
2023/05/25 13:12:06;;;;;;;6.03;3.53;;;;;;;;;;6254253;28;20198;-74
2023/05/25 13:15:08;;;;;;;7.40;3.90;;;;;;;;;;6252230;28;20072;-75
2023/05/25 13:18:09;;;;;;;6.90;3.90;;;;;;;;;;6249913;28;20121;-75
2023/05/25 13:21:11;;;;;;;5.50;3.77;;;;;;;;;;6245989;28;20141;-75
2023/05/25 13:24:12;;;;;;;4.93;3.40;;;;;;;;;;6249242;28;20529;-75
2023/05/25 13:27:14;;;;;;;6.05;3.80;;;;;;;;;;6259211;28;20045;-75
2023/05/25 13:30:16;;;;;;;5.83;3.47;;;;;;;;;;6252864;28;20045;-76
2023/05/25 13:33:18;;;;;;;4.82;3.50;;;;;;;;;;6259372;28;20052;-75
2023/05/25 13:36:19;;;;;;;6.23;3.70;;;;;;;;;;6256276;28;20134;-76
2023/05/25 13:39:21;;;;;;;5.67;3.87;;;;;;;;;;6250247;28;20060;-75
2023/05/25 13:42:23;;;;;;;7.32;3.85;;;;;;;;;;6247286;28;20542;-75
2023/05/25 13:45:24;;;;;;;4.65;3.65;;;;;;;;;;6251226;28;20114;-77
2023/05/25 13:48:26;;;;;;;5.70;3.60;;;;;;;;;;6227999;28;20041;-76
2023/05/25 13:51:28;;;;;;;5.18;3.72;;;;;;;;;;6252166;28;20451;-75
2023/05/25 13:54:30;;;;;;;6.70;3.65;;;;;;;;;;6254541;28;20091;-74
2023/05/25 13:57:31;;;;;;;6.80;4.07;;;;;;;;;;6251140;28;20126;-76
2023/05/25 14:00:33;;;;;;;6.67;3.60;;;;;;;;;;6256550;28;20201;-75
2023/05/25 14:03:36;;;;;;;7.03;3.73;;;;;;;;;;6256194;28;20550;-75
2023/05/25 14:06:38;;;;;;;6.22;3.60;;;;;;;;;;6263308;28;20053;-72
2023/05/25 14:09:40;;;;;;;7.50;3.92;;;;;;;;;;6250308;28;20132;-74
2023/05/25 14:12:42;;;;;;;6.90;3.85;;;;;;;;;;6244018;28;20045;-75
2023/05/25 14:15:43;;;;;;;7.10;3.90;;;;;;;;;;6231749;28;20052;-73
2023/05/25 14:18:45;;;;;;;6.53;3.90;;;;;;;;;;6244520;28;20415;-75
2023/05/25 14:21:47;;;;;;;5.83;3.63;;;;;;;;;;6254434;28;20049;-74
2023/05/25 14:25:09;;;;;;;6.03;3.80;;;;;;;;;;6253517;28;22240;-76
2023/05/25 14:28:10;;;;;;;6.03;3.90;;;;;;;;;;6252643;28;20088;-76
2023/05/25 14:31:12;;;;;;;5.83;3.67;;;;;;;;;;6246611;28;20452;-76
2023/05/25 14:34:13;;;;;;;6.03;3.93;;;;;;;;;;6249371;28;20044;-75
2023/05/25 14:37:15;;;;;;;4.90;3.63;;;;;;;;;;6235791;28;20041;-76
2023/05/25 14:40:17;;;;;;;8.60;3.97;;;;;;;;;;6249467;28;20072;-76
2023/05/25 14:43:18;;;;;;;6.53;4.22;;;;;;;;;;6247955;28;20045;-74
2023/05/25 14:46:20;;;;;;;4.93;3.70;;;;;;;;;;6247843;28;20048;-74
2023/05/25 14:49:23;;;;;;;6.53;4.10;;;;;;;;;;6240200;28;20041;-76
2023/05/25 14:52:25;;;;;;;5.80;3.75;;;;;;;;;;6250754;28;20045;-75
2023/05/25 14:55:26;;;;;;;5.03;3.70;;;;;;;;;;6246696;28;20048;-75
2023/05/25 14:58:31;;;;;;;3.93;3.53;;;;;;;;;;6241943;28;20037;-76
2023/05/25 15:01:32;;;;;;;7.47;3.88;;;;;;;;;;6251136;28;20134;-75
2023/05/25 15:04:34;;;;;;;7.20;3.97;;;;;;;;;;6247371;28;20211;-76
2023/05/25 15:07:36;;;;;;;6.13;3.90;;;;;;;;;;6246256;28;20091;-75
2023/05/25 15:10:37;;;;;;;6.45;3.85;;;;;;;;;;6247292;28;20144;-73
2023/05/25 15:13:39;;;;;;;6.63;3.80;;;;;;;;;;6248726;28;20191;-71
2023/05/25 15:16:42;;;;;;;7.00;3.75;;;;;;;;;;6252726;28;20616;-72
2023/05/25 15:19:44;;;;;;;5.18;3.83;;;;;;;;;;6250196;28;20052;-72
2023/05/25 15:22:45;;;;;;;6.50;4.07;;;;;;;;;;6251574;28;20129;-73
2023/05/25 15:25:47;;;;;;;7.65;4.32;;;;;;;;;;6248186;28;20443;-74
2023/05/25 15:28:49;;;;;;;7.07;4.07;;;;;;;;;;6245930;28;20127;-74
2023/05/25 15:31:51;;;;;;;9.20;4.10;;;;;;;;;;6242855;28;20094;-73
2023/05/25 15:34:53;;;;;;;9.27;4.25;;;;;;;;;;6244565;28;20807;-73
2023/05/25 15:37:56;;;;;;;8.02;4.28;;;;;;;;;;6251570;28;20179;-74
2023/05/25 15:40:57;;;;;;;6.70;4.10;;;;;;;;;;6250029;28;20046;-74
2023/05/25 15:44:00;;;;;;;6.57;4.65;;;;;;;;;;6247454;28;20641;-72
2023/05/25 15:47:02;;;;;;;7.88;4.32;;;;;;;;;;6234260;28;20037;-73
2023/05/25 15:50:04;;;;;;;7.55;3.90;;;;;;;;;;6246799;28;21557;-73
2023/05/25 15:53:05;;;;;;;7.70;4.60;;;;;;;;;;6241390;28;20141;-74
2023/05/25 15:56:07;;;;;;;8.02;4.20;;;;;;;;;;6245291;28;20499;-73
2023/05/25 15:59:10;;;;;;;7.82;4.18;;;;;;;;;;6248661;28;20538;-72
2023/05/25 16:02:13;;;;;;;8.98;4.35;;;;;;;;;;6250260;28;20505;-74
2023/05/25 16:05:15;;;;;;;6.43;4.00;;;;;;;;;;6249785;28;20041;-73
2023/05/25 16:08:16;;;;;;;6.35;3.72;;;;;;;;;;6245472;28;20524;-72
2023/05/25 16:11:18;;;;;;;9.07;4.30;;;;;;;;;;6250952;28;20052;-72
2023/05/25 16:14:20;;;;;;;8.90;4.20;;;;;;;;;;6271954;28;20605;-73
2023/05/25 16:17:21;;;;;;;6.50;4.28;;;;;;;;;;6256189;28;20528;-75
2023/05/25 16:20:23;;;;;;;7.55;4.40;;;;;;;;;;6254892;28;20049;-74
2023/05/25 16:23:25;;;;;;;6.35;4.40;;;;;;;;;;6252094;28;20567;-72
2023/05/25 16:26:26;;;;;;;10.15;4.55;;;;;;;;;;6250324;28;20040;-73
2023/05/25 16:29:28;;;;;;;8.20;4.65;;;;;;;;;;6250935;28;20125;-74
2023/05/25 16:32:29;;;;;;;10.77;4.40;;;;;;;;;;6251275;28;20092;-74
2023/05/25 16:35:31;;;;;;;7.78;4.18;;;;;;;;;;6252911;28;20037;-73
2023/05/25 16:38:33;;;;;;;9.05;4.90;;;;;;;;;;6251126;28;20049;-74
2023/05/25 16:41:34;;;;;;;8.27;4.30;;;;;;;;;;6252738;28;20176;-74
2023/05/25 16:44:36;;;;;;;5.45;4.40;;;;;;;;;;6249755;28;20084;-75
2023/05/25 16:47:38;;;;;;;11.25;4.95;;;;;;;;;;6262899;28;20139;-74
2023/05/25 16:50:39;;;;;;;12.40;5.40;;;;;;;;;;6249977;28;20041;-75
2023/05/25 16:53:42;;;;;;;10.35;5.03;;;;;;;;;;6252820;28;20151;-74
2023/05/25 16:56:43;;;;;;;8.48;4.72;;;;;;;;;;6250806;28;20053;-75
2023/05/25 16:59:45;;;;;;;6.80;4.70;;;;;;;;;;6249905;28;20064;-75
2023/05/25 17:02:47;;;;;;;8.93;5.10;;;;;;;;;;6251817;28;20132;-75
2023/05/25 17:05:49;;;;;;;13.52;5.40;;;;;;;;;;6245226;28;20171;-73
2023/05/25 17:08:54;;;;;;;11.85;5.78;;;;;;;;;;6251419;28;20044;-75
2023/05/25 17:12:00;;;;;;;8.18;5.25;;;;;;;;;;6252577;28;20060;-73
2023/05/25 17:15:02;;;;;;;11.90;6.85;;;;;;;;;;6256868;28;20049;-73
2023/05/25 17:18:05;;;;;;;21.13;12.20;;;;;;;;;;6246812;28;20277;-73
2023/05/25 17:21:07;;;;;;;9.60;5.13;;;;;;;;;;6251691;28;20423;-71
2023/05/25 17:24:10;;;;;;;7.43;4.72;;;;;;;;;;6268758;28;20055;-73
2023/05/25 17:27:12;;;;;;;13.38;5.40;;;;;;;;;;6263431;28;20131;-72
2023/05/25 17:30:16;;;;;;;8.40;4.38;;;;;;;;;;6252102;28;20087;-73
2023/05/25 17:33:18;;;;;;;6.80;4.03;;;;;;;;;;6251698;28;20084;-73
2023/05/25 17:36:24;;;;;;;9.73;5.13;;;;;;;;;;6251947;28;20048;-73
2023/05/25 17:39:28;;;;;;;8.18;5.05;;;;;;;;;;6250093;28;20434;-73
2023/05/25 17:42:31;;;;;;;9.50;5.75;;;;;;;;;;6252014;28;20521;-74
2023/05/25 17:45:33;;;;;;;7.68;4.43;;;;;;;;;;6245925;28;20045;-74
2023/05/25 17:48:35;;;;;;;11.38;6.80;;;;;;;;;;6248573;28;20057;-72
2023/05/25 17:51:37;;;;;;;9.30;4.38;;;;;;;;;;6247210;28;20168;-73
2023/05/25 17:54:39;;;;;;;9.35;4.35;;;;;;;;;;6249560;28;20553;-73
2023/05/25 17:57:40;;;;;;;6.78;4.50;;;;;;;;;;6245720;28;20056;-74
2023/05/25 18:00:42;;;;;;;8.25;4.53;;;;;;;;;;6259391;28;20138;-73
2023/05/25 18:03:43;;;;;;;9.98;4.30;;;;;;;;;;6250119;28;20060;-72
2023/05/25 18:06:48;;;;;;;9.00;4.28;;;;;;;;;;6249800;28;20137;-72
2023/05/25 18:09:50;;;;;;;7.53;4.43;;;;;;;;;;6250240;28;20059;-75
2023/05/25 18:12:53;;;;;;;8.40;4.47;;;;;;;;;;6247892;28;20045;-76
2023/05/25 18:15:54;;;;;;;11.23;4.70;;;;;;;;;;6255691;28;20049;-77
2023/05/25 18:18:56;;;;;;;10.20;4.90;;;;;;;;;;6250774;28;20045;-78